Time;durP1;ratioP1;P1;durP2;ratioP2;P2;SDS_P1;SDS_P2;PMS_P1;PMS_P2;Temp;Humidity;BMP_temperature;BMP_pressure;BME280_temperature;BME280_humidity;BME280_pressure;Samples;Min_cycle;Max_cycle;Signal;HPM_P1;HPM_P2
2022/09/22 00:00:09;;;;;;;8.60;7.43;;;9.70;99.90;;;;;;5031733;28;20459;-70
2022/09/22 00:03:22;;;;;;;8.33;7.53;;;9.70;99.90;;;;;;5025877;28;20591;-71
2022/09/22 00:06:42;;;;;;;6.40;5.80;;;9.60;99.90;;;;;;5020186;28;20490;-71
2022/09/22 00:09:47;;;;;;;6.97;6.37;;;9.60;99.90;;;;;;5025586;28;20455;-71
2022/09/22 00:12:52;;;;;;;7.03;6.33;;;9.50;99.90;;;;;;5028662;28;20460;-71
2022/09/22 00:16:05;;;;;;;7.63;6.83;;;9.50;99.90;;;;;;5017675;28;20847;-71
2022/09/22 00:19:07;;;;;;;7.33;6.63;;;9.50;99.90;;;;;;5027000;28;20459;-71
2022/09/22 00:22:02;;;;;;;7.00;6.40;;;9.50;99.90;;;;;;5021408;28;20549;-70
2022/09/22 00:25:04;;;;;;;7.67;6.97;;;9.50;99.90;;;;;;5028140;28;20475;-70
2022/09/22 00:28:34;;;;;;;7.73;7.03;;;9.50;99.90;;;;;;5028419;28;20486;-70
2022/09/22 00:31:38;;;;;;;7.77;7.07;;;9.40;99.90;;;;;;5023305;28;20465;-70
2022/09/22 00:34:54;;;;;;;7.03;6.30;;;9.40;99.90;;;;;;5028597;28;20590;-70
2022/09/22 00:38:01;;;;;;;6.73;6.13;;;9.50;99.90;;;;;;5028533;28;20471;-70
2022/09/22 00:41:32;;;;;;;;;;;;;;;;;;;;;
2022/09/22 00:44:53;;;;;;;7.17;6.57;;;9.40;99.90;;;;;;5027772;28;20596;-70
2022/09/22 00:48:28;;;;;;;6.90;6.20;;;9.40;99.90;;;;;;5020313;28;20483;-70
2022/09/22 00:51:42;;;;;;;7.87;7.17;;;9.30;99.90;;;;;;5034159;28;20516;-70
2022/09/22 00:54:32;;;;;;;7.27;6.57;;;9.30;99.90;;;;;;5030058;28;20487;-71
2022/09/22 00:57:48;;;;;;;7.87;7.07;;;9.30;99.90;;;;;;5017247;28;20507;-70
2022/09/22 01:00:51;;;;;;;7.60;6.90;;;9.30;99.90;;;;;;5019593;28;20463;-70
2022/09/22 01:03:51;;;;;;;7.47;6.87;;;9.20;99.90;;;;;;5030889;28;20475;-70
2022/09/22 01:07:02;;;;;;;7.67;6.90;;;9.20;99.90;;;;;;5023858;28;20468;-70
2022/09/22 01:13:42;;;;;;;7.73;7.03;;;9.10;99.90;;;;;;5026184;28;20561;-70
2022/09/22 01:17:05;;;;;;;7.43;6.50;;;9.10;99.90;;;;;;5026491;28;20883;-70
2022/09/22 01:24:35;;;;;;;7.53;6.87;;;9.00;99.90;;;;;;5022234;28;20721;-70
2022/09/22 01:27:58;;;;;;;7.73;6.93;;;9.00;99.90;;;;;;5022936;28;20486;-70
2022/09/22 01:35:02;;;;;;;6.40;5.90;;;8.90;99.90;;;;;;5020532;28;20508;-69
2022/09/22 01:38:11;;;;;;;7.20;6.50;;;8.90;99.90;;;;;;5023931;28;20478;-72
2022/09/22 01:41:52;;;;;;;;;;;;;;;;;;;;;
2022/09/22 01:44:57;;;;;;;7.50;6.70;;;8.90;99.90;;;;;;5018750;28;20476;-70
2022/09/22 01:51:36;;;;;;;7.20;6.60;;;8.80;99.90;;;;;;5027466;28;20575;-70
2022/09/22 01:54:51;;;;;;;7.50;6.50;;;8.80;99.90;;;;;;5025559;28;20554;-72
2022/09/22 01:57:59;;;;;;;7.33;6.73;;;8.80;99.90;;;;;;5025313;28;20471;-72
2022/09/22 02:01:06;;;;;;;6.73;6.10;;;8.70;99.90;;;;;;5034140;28;20447;-72
2022/09/22 02:04:23;;;;;;;6.10;5.60;;;8.70;99.90;;;;;;5029508;28;20570;-69
2022/09/22 02:07:48;;;;;;;6.80;6.10;;;8.70;99.90;;;;;;5029605;28;20578;-70
2022/09/22 02:10:48;;;;;;;8.67;6.53;;;8.70;99.90;;;;;;5029438;28;20447;-70
2022/09/22 02:14:00;;;;;;;6.47;5.97;;;8.70;99.90;;;;;;5038904;28;20471;-70
2022/09/22 02:17:26;;;;;;;7.50;6.70;;;8.60;99.90;;;;;;5029827;28;20486;-72
2022/09/22 02:23:59;;;;;;;6.53;5.93;;;8.60;99.90;;;;;;5026922;28;20841;-71
2022/09/22 02:27:13;;;;;;;7.60;6.90;;;8.50;99.90;;;;;;5032063;28;21015;-71
2022/09/22 02:30:36;;;;;;;6.60;6.00;;;8.50;99.90;;;;;;5027471;28;20452;-69
2022/09/22 02:33:53;;;;;;;6.90;6.10;;;8.50;99.90;;;;;;5031309;28;20463;-71
2022/09/22 02:36:52;;;;;;;7.03;6.43;;;8.50;99.90;;;;;;5033684;28;20463;-70
2022/09/22 02:40:31;;;;;;;6.97;6.37;;;8.50;99.90;;;;;;5029500;28;20495;-70
2022/09/22 02:43:43;;;;;;;6.73;6.03;;;8.50;99.90;;;;;;5034735;28;20482;-70
2022/09/22 02:47:02;;;;;;;7.00;6.30;;;8.40;99.90;;;;;;5028488;28;20620;-69
2022/09/22 02:49:57;;;;;;;6.70;6.10;;;8.40;99.90;;;;;;5028627;28;20479;-70
2022/09/22 02:53:07;;;;;;;6.90;6.30;;;8.40;99.90;;;;;;5027179;28;20986;-69
2022/09/22 02:56:08;;;;;;;7.20;6.50;;;8.40;99.90;;;;;;5028816;28;21013;-69
2022/09/22 02:59:05;;;;;;;6.67;6.07;;;8.40;99.90;;;;;;5024979;28;20541;-69
2022/09/22 03:02:28;;;;;;;7.03;6.33;;;8.40;99.90;;;;;;5035013;28;20573;-69
2022/09/22 03:08:58;;;;;;;6.20;5.67;;;8.30;99.90;;;;;;5027361;28;20501;-69
2022/09/22 03:12:10;;;;;;;6.40;5.87;;;8.30;99.90;;;;;;5036175;28;20466;-70
2022/09/22 03:15:27;;;;;;;9.13;6.47;;;8.30;99.90;;;;;;5021157;28;20475;-69
2022/09/22 03:18:33;;;;;;;6.97;6.37;;;8.20;99.90;;;;;;5017563;28;20455;-70
2022/09/22 03:21:41;;;;;;;6.77;6.10;;;8.20;99.90;;;;;;5014405;28;20544;-69
2022/09/22 03:24:37;;;;;;;6.97;6.30;;;8.20;99.90;;;;;;5029193;28;20471;-69
2022/09/22 03:30:49;;;;;;;7.10;6.50;;;8.10;99.90;;;;;;5027337;28;21060;-70
2022/09/22 03:34:06;;;;;;;6.60;6.10;;;8.10;99.90;;;;;;5024324;28;20470;-69
2022/09/22 03:37:11;;;;;;;7.50;6.80;;;8.10;99.90;;;;;;5031331;28;20543;-69
2022/09/22 03:40:32;;;;;;;6.90;6.20;;;8.00;99.90;;;;;;5040095;28;20450;-69
2022/09/22 03:43:42;;;;;;;6.83;6.20;;;8.00;99.90;;;;;;5031183;28;20491;-69
2022/09/22 03:47:28;;;;;;;6.90;6.30;;;8.00;99.90;;;;;;5024408;28;20653;-68
2022/09/22 03:50:44;;;;;;;6.33;5.73;;;8.00;99.90;;;;;;5019987;28;20891;-70
2022/09/22 03:54:12;;;;;;;6.50;5.90;;;7.90;99.90;;;;;;5022198;28;20487;-70
2022/09/22 03:57:12;;;;;;;6.30;5.70;;;7.90;99.90;;;;;;5027986;28;20479;-70
2022/09/22 04:00:36;;;;;;;6.83;6.23;;;7.90;99.90;;;;;;5031281;28;20443;-70
2022/09/22 04:04:04;;;;;;;;;;;;;;;;;;;;;
2022/09/22 04:07:02;;;;;;;6.73;6.13;;;7.90;99.90;;;;;;5027554;28;20475;-71
2022/09/22 04:10:18;;;;;;;6.80;6.20;;;7.90;99.90;;;;;;5037891;28;20471;-71
2022/09/22 04:13:31;;;;;;;6.40;5.80;;;7.80;99.90;;;;;;5028971;28;20464;-70
2022/09/22 04:16:35;;;;;;;7.37;6.63;;;7.80;99.90;;;;;;5014516;28;20548;-70
2022/09/22 04:19:45;;;;;;;7.07;6.37;;;7.80;99.90;;;;;;5028270;28;20460;-70
2022/09/22 04:23:22;;;;;;;6.70;6.10;;;7.80;99.90;;;;;;5030831;28;20979;-70
2022/09/22 04:30:05;;;;;;;6.90;6.20;;;7.70;99.90;;;;;;5030390;28;21174;-70
2022/09/22 04:32:58;;;;;;;7.10;6.50;;;7.70;99.90;;;;;;5024983;28;20459;-70
2022/09/22 04:36:03;;;;;;;6.77;6.17;;;7.70;99.90;;;;;;5019820;28;20865;-70
2022/09/22 04:39:10;;;;;;;6.80;6.10;;;7.70;99.90;;;;;;5018795;28;20479;-70
2022/09/22 04:42:16;;;;;;;6.90;6.30;;;7.70;99.90;;;;;;5026005;28;20983;-70
2022/09/22 04:45:44;;;;;;;7.00;6.40;;;7.70;99.90;;;;;;5018140;28;20480;-70
2022/09/22 04:49:02;;;;;;;6.43;5.83;;;7.70;99.90;;;;;;5005529;28;20463;-70
2022/09/22 04:52:21;;;;;;;6.80;6.20;;;7.60;99.90;;;;;;5030192;28;20454;-70
2022/09/22 04:55:55;;;;;;;6.70;6.10;;;7.60;99.90;;;;;;5011456;28;20506;-70
2022/09/22 04:59:31;;;;;;;7.33;6.73;;;7.60;99.90;;;;;;5020552;28;20989;-70
2022/09/22 05:02:38;;;;;;;7.27;6.67;;;7.50;99.90;;;;;;5016670;28;20460;-70
2022/09/22 05:05:42;;;;;;;7.40;6.77;;;7.50;99.90;;;;;;5024423;28;20486;-70
2022/09/22 05:08:48;;;;;;;6.80;6.20;;;7.50;99.90;;;;;;5016879;28;20812;-70
2022/09/22 05:12:00;;;;;;;7.10;6.40;;;7.50;99.90;;;;;;5010024;28;20462;-72
2022/09/22 05:15:18;;;;;;;6.60;6.07;;;7.50;99.90;;;;;;5012807;28;20483;-71
2022/09/22 05:18:49;;;;;;;6.87;6.17;;;7.50;99.90;;;;;;5001877;28;20460;-71
2022/09/22 05:21:59;;;;;;;6.87;6.20;;;7.50;99.90;;;;;;5020405;28;22641;-70
2022/09/22 05:25:19;;;;;;;6.80;6.20;;;7.40;99.90;;;;;;5016467;28;20478;-71
2022/09/22 05:28:24;;;;;;;6.57;6.07;;;7.40;99.90;;;;;;5017455;28;20466;-70
2022/09/22 05:31:28;;;;;;;8.43;6.43;;;7.40;99.90;;;;;;5019472;28;20824;-70
2022/09/22 05:34:36;;;;;;;7.97;7.00;;;7.40;99.90;;;;;;5015048;28;20516;-71
2022/09/22 05:37:40;;;;;;;7.53;6.83;;;7.40;99.90;;;;;;5022625;28;20485;-70
2022/09/22 05:40:44;;;;;;;7.43;6.73;;;7.40;99.90;;;;;;5023636;28;20447;-70
2022/09/22 05:43:39;;;;;;;7.60;6.80;;;7.40;99.90;;;;;;5018766;28;20467;-71
2022/09/22 05:47:14;;;;;;;7.40;6.80;;;7.40;99.90;;;;;;5004534;28;20534;-70
2022/09/22 05:50:22;;;;;;;7.17;6.47;;;7.50;99.90;;;;;;5006373;28;20843;-70
2022/09/22 05:53:30;;;;;;;8.00;7.23;;;7.50;99.90;;;;;;5044609;22;20475;-68
2022/09/22 06:02:58;;;;;;;9.23;8.30;;;7.50;99.90;;;;;;4994619;28;20484;-67
2022/09/22 06:05:46;;;;;;;9.40;8.60;;;7.50;99.90;;;;;;4969486;28;20858;-68
2022/09/22 06:08:36;;;;;;;9.70;8.90;;;7.60;99.90;;;;;;4987159;28;20458;-68
2022/09/22 06:11:36;;;;;;;12.33;10.47;;;7.60;99.90;;;;;;4976119;28;20472;-67
2022/09/22 06:14:35;;;;;;;11.40;10.40;;;7.60;99.90;;;;;;4974447;28;20488;-68
2022/09/22 06:17:35;;;;;;;11.73;10.57;;;7.60;99.90;;;;;;4979440;28;20605;-67
2022/09/22 06:20:31;;;;;;;11.03;10.03;;;7.70;99.90;;;;;;4985521;28;20446;-68
2022/09/22 06:23:22;;;;;;;11.77;10.57;;;7.70;99.90;;;;;;4982166;28;20460;-68
2022/09/22 06:26:13;;;;;;;11.20;10.00;;;7.80;99.90;;;;;;4984181;28;20496;-68
2022/09/22 06:29:03;;;;;;;9.10;8.20;;;7.90;99.90;;;;;;4986905;28;20457;-68
2022/09/22 06:31:53;;;;;;;9.80;8.83;;;8.20;99.90;;;;;;4983069;28;20457;-67
2022/09/22 06:34:44;;;;;;;9.90;8.90;;;8.70;99.90;;;;;;4981420;28;21153;-68
2022/09/22 06:37:41;;;;;;;9.03;8.20;;;8.80;99.90;;;;;;4977992;28;20481;-68
2022/09/22 06:40:32;;;;;;;9.70;8.90;;;8.70;99.90;;;;;;4981882;28;21146;-67
2022/09/22 06:43:25;;;;;;;8.60;7.90;;;8.70;99.90;;;;;;4985493;28;20465;-68
2022/09/22 06:46:18;;;;;;;9.20;8.30;;;8.60;99.90;;;;;;4986769;28;21182;-67
2022/09/22 06:49:14;;;;;;;9.43;8.30;;;8.50;99.90;;;;;;4984374;28;20545;-68
2022/09/22 06:52:02;;;;;;;9.33;8.33;;;8.60;99.90;;;;;;4987273;28;20965;-69
2022/09/22 06:55:00;;;;;;;9.60;8.70;;;8.60;99.90;;;;;;4980544;28;20489;-69
2022/09/22 06:57:51;;;;;;;13.37;8.70;;;8.60;99.90;;;;;;4988278;28;20453;-67
2022/09/22 07:00:43;;;;;;;8.93;8.07;;;8.70;99.90;;;;;;4987464;28;20453;-68
2022/09/22 07:03:32;;;;;;;9.87;8.97;;;8.70;99.90;;;;;;4985295;28;20572;-67
2022/09/22 07:06:25;;;;;;;10.23;9.27;;;8.70;99.90;;;;;;4984548;28;21022;-68
2022/09/22 07:09:14;;;;;;;9.20;8.40;;;8.80;99.90;;;;;;4976320;28;20962;-68
2022/09/22 07:12:07;;;;;;;11.80;10.33;;;8.90;99.90;;;;;;4981285;28;20457;-68
2022/09/22 07:14:56;;;;;;;11.73;10.50;;;9.00;99.90;;;;;;4984807;28;20858;-69
2022/09/22 07:17:53;;;;;;;11.20;10.30;;;9.00;99.90;;;;;;4987907;28;20464;-68
2022/09/22 07:20:44;;;;;;;11.70;10.53;;;9.20;99.90;;;;;;4980844;28;20461;-68
2022/09/22 07:23:35;;;;;;;14.27;11.10;;;9.20;99.90;;;;;;4987592;28;20536;-69
2022/09/22 07:26:31;;;;;;;14.93;12.00;;;9.30;99.90;;;;;;4987955;28;20489;-69
2022/09/22 07:29:25;;;;;;;12.33;10.93;;;9.40;99.90;;;;;;4988395;28;20485;-68
2022/09/22 07:32:17;;;;;;;15.40;12.80;;;9.50;99.90;;;;;;4985259;28;20465;-68
2022/09/22 07:35:12;;;;;;;13.80;12.50;;;9.60;99.90;;;;;;4990359;28;20471;-69
2022/09/22 07:38:02;;;;;;;17.73;11.80;;;9.70;99.90;;;;;;4988309;28;20510;-69
2022/09/22 07:40:54;;;;;;;16.93;12.63;;;9.80;99.90;;;;;;4985423;28;20453;-70
2022/09/22 07:43:50;;;;;;;13.30;11.27;;;9.90;99.90;;;;;;4979897;28;20478;-69
2022/09/22 07:46:55;;;;;;;13.43;11.53;;;10.00;99.90;;;;;;4986794;28;20477;-69
2022/09/22 07:49:46;;;;;;;15.10;12.30;;;10.10;99.90;;;;;;4987562;28;20464;-69
2022/09/22 07:52:35;;;;;;;13.47;11.80;;;10.20;99.90;;;;;;4985806;28;20454;-70
2022/09/22 07:55:24;;;;;;;12.87;11.57;;;10.30;99.90;;;;;;4982781;28;20965;-70
2022/09/22 07:58:12;;;;;;;13.77;12.43;;;10.40;99.90;;;;;;4990649;28;20961;-69
2022/09/22 08:01:08;;;;;;;13.87;12.47;;;10.40;99.90;;;;;;4985571;28;20456;-69
2022/09/22 08:03:59;;;;;;;13.57;12.17;;;10.60;99.90;;;;;;4986713;28;20484;-70
2022/09/22 08:06:48;;;;;;;12.23;10.90;;;10.60;99.90;;;;;;4980423;28;20499;-70
2022/09/22 08:09:36;;;;;;;14.83;12.50;;;10.80;99.90;;;;;;4984632;28;20829;-69
2022/09/22 08:12:25;;;;;;;13.73;12.43;;;10.90;99.90;;;;;;4981840;28;20847;-70
2022/09/22 08:15:13;;;;;;;12.87;11.57;;;11.00;99.90;;;;;;4983434;28;20485;-69
2022/09/22 08:18:02;;;;;;;11.90;10.80;;;11.10;99.90;;;;;;4980942;28;20480;-69
2022/09/22 08:20:52;;;;;;;13.37;11.97;;;11.20;99.90;;;;;;4987345;28;20489;-70
2022/09/22 08:23:40;;;;;;;11.63;10.63;;;11.30;99.90;;;;;;4985448;28;20488;-69
2022/09/22 08:26:28;;;;;;;11.53;10.43;;;11.40;99.90;;;;;;4986466;28;20489;-69
2022/09/22 08:29:17;;;;;;;10.77;9.77;;;11.50;99.90;;;;;;4985156;28;20445;-69
2022/09/22 08:32:05;;;;;;;12.83;11.60;;;11.60;99.90;;;;;;4983651;28;20997;-70
2022/09/22 08:34:56;;;;;;;12.50;11.30;;;11.70;99.90;;;;;;4984827;28;20477;-69
2022/09/22 08:37:49;;;;;;;11.47;10.30;;;11.80;99.90;;;;;;4977844;28;20509;-67
2022/09/22 08:40:37;;;;;;;10.77;8.80;;;11.90;99.90;;;;;;4981526;28;20449;-67
2022/09/22 08:43:26;;;;;;;9.37;8.47;;;12.00;99.90;;;;;;4982470;28;20486;-67
2022/09/22 08:46:15;;;;;;;9.10;8.20;;;12.10;99.90;;;;;;4985081;28;20853;-68
2022/09/22 08:52:24;;;;;;;10.80;6.83;;;12.30;99.90;;;;;;4981732;28;20487;-68
2022/09/22 08:55:19;;;;;;;8.03;7.10;;;12.40;99.90;;;;;;4985559;28;20465;-68
2022/09/22 08:58:19;;;;;;;7.50;6.90;;;12.50;99.90;;;;;;4986580;28;20457;-67
2022/09/22 09:01:28;;;;;;;8.10;7.30;;;12.60;99.90;;;;;;4985312;28;20560;-68
2022/09/22 09:04:42;;;;;;;10.40;7.43;;;12.70;99.90;;;;;;4975457;28;20954;-67
2022/09/22 09:07:42;;;;;;;6.57;5.93;;;12.80;99.90;;;;;;4982748;28;20486;-67
2022/09/22 09:10:44;;;;;;;7.93;6.33;;;12.90;99.90;;;;;;4983244;28;20584;-68
2022/09/22 09:13:47;;;;;;;7.53;6.00;;;13.00;99.90;;;;;;4976094;28;20477;-68
2022/09/22 09:16:44;;;;;;;6.37;5.70;;;13.10;99.90;;;;;;4979876;28;20797;-68
2022/09/22 09:19:37;;;;;;;7.20;6.30;;;13.20;99.90;;;;;;4983736;28;20461;-68
2022/09/22 09:22:30;;;;;;;7.20;6.50;;;13.30;99.90;;;;;;4982220;28;20469;-68
2022/09/22 09:25:22;;;;;;;5.43;4.93;;;13.40;99.90;;;;;;4986207;28;20840;-68
2022/09/22 09:28:17;;;;;;;5.17;3.53;;;13.50;99.90;;;;;;4986449;28;20450;-68
2022/09/22 09:31:17;;;;;;;4.87;3.90;;;13.60;99.90;;;;;;4981396;28;20465;-68
2022/09/22 09:34:12;;;;;;;4.70;3.20;;;13.70;99.90;;;;;;4984220;28;21014;-68
2022/09/22 09:37:08;;;;;;;2.60;2.40;;;13.80;99.90;;;;;;4984843;28;20996;-69
2022/09/22 09:40:01;;;;;;;5.40;2.60;;;13.90;99.90;;;;;;4981016;28;20457;-68
2022/09/22 09:42:56;;;;;;;2.90;2.57;;;13.90;99.90;;;;;;4983221;28;20446;-68
2022/09/22 09:45:54;;;;;;;5.40;3.33;;;14.00;99.90;;;;;;4985328;28;20483;-68
2022/09/22 09:48:55;;;;;;;4.10;3.40;;;14.10;99.90;;;;;;4980532;28;20466;-68
2022/09/22 09:51:47;;;;;;;5.50;3.53;;;14.30;99.90;;;;;;4979089;28;21019;-68
2022/09/22 09:54:36;;;;;;;4.40;3.20;;;14.40;99.90;;;;;;4987247;28;20477;-68
2022/09/22 09:57:26;;;;;;;3.20;2.90;;;14.50;99.90;;;;;;4980407;28;20485;-68
2022/09/22 10:00:31;;;;;;;4.50;2.47;;;14.60;99.90;;;;;;4978497;28;20524;-69
2022/09/22 10:03:29;;;;;;;5.07;3.50;;;14.70;99.90;;;;;;4980200;28;20465;-69
2022/09/22 10:06:24;;;;;;;3.70;3.33;;;14.80;99.90;;;;;;4984169;28;20962;-68
2022/09/22 10:09:26;;;;;;;8.80;3.67;;;14.90;99.90;;;;;;4980343;28;20462;-69
2022/09/22 10:12:27;;;;;;;5.20;3.10;;;14.90;99.90;;;;;;4982577;28;20480;-70
2022/09/22 10:15:24;;;;;;;3.70;2.57;;;15.00;99.90;;;;;;4979448;28;20568;-69
2022/09/22 10:18:35;;;;;;;3.80;2.90;;;15.10;99.90;;;;;;4979908;28;20991;-69
2022/09/22 10:21:26;;;;;;;7.40;3.10;;;15.20;99.90;;;;;;4989516;28;20449;-69
2022/09/22 10:24:33;;;;;;;3.73;2.87;;;15.30;99.90;;;;;;4981484;28;20907;-69
2022/09/22 10:27:23;;;;;;;5.03;2.70;;;15.40;99.90;;;;;;4986892;28;20484;-69
2022/09/22 10:30:20;;;;;;;4.73;2.30;;;15.50;99.90;;;;;;4986388;28;20485;-68
2022/09/22 10:33:19;;;;;;;4.83;1.77;;;15.60;99.90;;;;;;4979746;28;20628;-69
2022/09/22 10:36:12;;;;;;;4.00;2.37;;;15.70;99.90;;;;;;4987061;28;20848;-68
2022/09/22 10:39:00;;;;;;;4.37;2.30;;;15.80;99.90;;;;;;4987680;28;20461;-69
2022/09/22 10:41:49;;;;;;;5.00;2.33;;;15.90;99.90;;;;;;4989274;28;20481;-69
2022/09/22 10:44:37;;;;;;;2.90;2.53;;;16.00;99.90;;;;;;4990967;28;20473;-69
2022/09/22 10:47:42;;;;;;;3.30;2.00;;;16.00;99.90;;;;;;4987264;28;20481;-69
2022/09/22 10:50:45;;;;;;;3.03;1.90;;;16.10;99.90;;;;;;4983822;28;20461;-69
2022/09/22 10:53:54;;;;;;;4.10;2.03;;;16.20;99.90;;;;;;4986340;28;20996;-69
2022/09/22 10:56:50;;;;;;;2.20;1.30;;;16.40;99.90;;;;;;4985801;28;20890;-69
2022/09/22 11:00:07;;;;;;;4.67;2.10;;;16.60;99.90;;;;;;4986578;28;20476;-69
2022/09/22 11:03:29;;;;;;;2.20;1.77;;;16.70;99.90;;;;;;4989060;28;20442;-69
2022/09/22 11:13:14;;;;;;;2.60;1.70;;;17.10;99.90;;;;;;4991118;28;20568;-69
2022/09/22 11:16:20;;;;;;;6.10;2.20;;;17.20;99.90;;;;;;4981457;28;20578;-69
2022/09/22 11:19:20;;;;;;;3.80;2.00;;;17.40;99.90;;;;;;4988926;28;20449;-69
2022/09/22 11:22:35;;;;;;;2.20;1.40;;;17.50;99.90;;;;;;4986718;28;20441;-70
2022/09/22 11:25:45;;;;;;;3.03;1.60;;;17.70;99.90;;;;;;4971046;28;20502;-69
2022/09/22 11:28:49;;;;;;;3.67;1.33;;;17.80;99.90;;;;;;4978826;28;20464;-69
2022/09/22 11:31:48;;;;;;;2.87;1.40;;;17.90;99.90;;;;;;4978517;28;20507;-68
2022/09/22 11:34:52;;;;;;;5.23;1.73;;;18.00;99.90;;;;;;4989933;28;20976;-68
2022/09/22 11:37:50;;;;;;;2.43;1.30;;;18.10;99.90;;;;;;4989317;28;20481;-68
2022/09/22 11:41:16;;;;;;;2.60;1.60;;;18.20;99.90;;;;;;4977799;28;20465;-68
2022/09/22 11:44:37;;;;;;;2.03;1.60;;;18.30;99.90;;;;;;4970223;28;20481;-67
2022/09/22 11:47:46;;;;;;;1.70;1.20;;;18.30;99.90;;;;;;4978281;28;20481;-68
2022/09/22 11:50:55;;;;;;;2.57;1.60;;;18.30;99.90;;;;;;4981821;28;20584;-67
2022/09/22 11:53:57;;;;;;;3.53;1.40;;;18.20;99.90;;;;;;4978073;28;20585;-67
2022/09/22 11:56:51;;;;;;;1.80;1.40;;;18.10;99.90;;;;;;5003584;23;20501;-71
2022/09/22 11:59:44;;;;;;;3.90;1.50;;;17.90;99.90;;;;;;5001259;28;20944;-71
2022/09/22 12:02:39;;;;;;;1.93;1.27;;;17.90;99.90;;;;;;4994362;28;20445;-73
2022/09/22 12:05:38;;;;;;;4.23;1.40;;;17.80;99.90;;;;;;4988262;28;20596;-72
2022/09/22 12:08:37;;;;;;;3.20;1.50;;;17.80;99.90;;;;;;4977938;28;20466;-71
2022/09/22 12:11:34;;;;;;;1.63;1.43;;;17.80;99.90;;;;;;4985336;28;20531;-71
2022/09/22 12:14:34;;;;;;;3.00;1.67;;;17.70;99.90;;;;;;4971832;28;20449;-71
2022/09/22 12:17:31;;;;;;;2.53;1.40;;;17.60;99.90;;;;;;4979494;28;20488;-70
2022/09/22 12:20:33;;;;;;;2.93;1.37;;;17.60;99.90;;;;;;4972677;28;20453;-71
2022/09/22 12:23:42;;;;;;;5.27;1.43;;;17.50;99.90;;;;;;4971725;28;20602;-71
2022/09/22 12:26:36;;;;;;;3.60;1.20;;;17.50;99.90;;;;;;4975230;28;20485;-71
2022/09/22 12:29:29;;;;;;;4.30;1.40;;;17.50;99.90;;;;;;4981385;28;20446;-70
2022/09/22 12:32:27;;;;;;;3.03;1.30;;;17.50;99.90;;;;;;4991229;28;20478;-70
2022/09/22 12:35:23;;;;;;;1.70;1.40;;;17.80;99.90;;;;;;4979857;28;20617;-72
2022/09/22 12:38:19;;;;;;;2.13;1.50;;;18.40;99.90;;;;;;4981202;28;20470;-72
2022/09/22 12:41:17;;;;;;;1.67;1.10;;;19.10;99.90;;;;;;4978575;28;20965;-72
2022/09/22 12:44:12;;;;;;;2.33;1.40;;;19.70;99.90;;;;;;4972996;28;20457;-72
2022/09/22 12:47:06;;;;;;;1.70;1.60;;;20.50;99.90;;;;;;4982568;28;21050;-72
2022/09/22 12:50:02;;;;;;;1.57;1.20;;;20.90;99.90;;;;;;4971947;28;20981;-72
2022/09/22 12:53:25;;;;;;;2.53;1.07;;;21.40;99.90;;;;;;4966613;28;20489;-71
2022/09/22 12:56:45;;;;;;;2.40;1.30;;;22.20;99.90;;;;;;4978740;28;20473;-71
2022/09/22 13:00:11;;;;;;;2.03;1.30;;;22.90;99.90;;;;;;4972013;28;20556;-71
2022/09/22 13:03:40;;;;;;;1.77;1.10;;;22.70;99.90;;;;;;4961483;28;20481;-72
2022/09/22 13:06:55;;;;;;;2.30;1.20;;;22.60;99.90;;;;;;4968727;28;21860;-72
2022/09/22 13:09:44;;;;;;;4.27;1.50;;;22.10;99.90;;;;;;4972077;28;21161;-72
2022/09/22 13:12:34;;;;;;;2.07;1.50;;;21.70;99.90;;;;;;4982251;28;20828;-72
2022/09/22 13:15:23;;;;;;;3.03;1.97;;;21.30;99.90;;;;;;4988480;28;20472;-72
2022/09/22 13:18:39;;;;;;;2.80;1.37;;;21.30;99.90;;;;;;4974220;28;20461;-71
2022/09/22 13:21:43;;;;;;;1.70;1.10;;;21.60;99.90;;;;;;4952514;28;20548;-71
2022/09/22 13:24:33;;;;;;;1.70;1.47;;;21.50;99.90;;;;;;4974160;28;20454;-71
2022/09/22 13:27:22;;;;;;;1.43;1.30;;;21.90;99.90;;;;;;4977928;28;20581;-71
2022/09/22 13:30:20;;;;;;;2.50;1.40;;;22.50;99.90;;;;;;4966075;28;20462;-72
2022/09/22 13:33:18;;;;;;;1.93;1.00;;;22.90;99.90;;;;;;4964835;28;20500;-71
2022/09/22 13:36:12;;;;;;;1.63;1.30;;;23.40;99.90;;;;;;4967898;28;20489;-72
2022/09/22 13:39:02;;;;;;;3.00;1.33;;;23.50;99.90;;;;;;4973925;28;20460;-72
2022/09/22 13:41:58;;;;;;;2.10;1.40;;;23.50;99.90;;;;;;4980337;28;20464;-72
2022/09/22 13:44:54;;;;;;;1.50;1.10;;;23.70;99.90;;;;;;4980196;28;20554;-72
2022/09/22 13:47:43;;;;;;;1.70;1.10;;;23.90;99.90;;;;;;4976508;28;20449;-72
2022/09/22 13:50:55;;;;;;;2.20;1.23;;;24.00;99.90;;;;;;4980774;28;21177;-72
2022/09/22 13:53:52;;;;;;;2.33;1.27;;;23.60;99.90;;;;;;4980724;28;20849;-72
2022/09/22 13:56:44;;;;;;;2.70;1.57;;;23.00;99.90;;;;;;4986191;28;20492;-72
2022/09/22 13:59:41;;;;;;;1.70;1.20;;;22.20;99.90;;;;;;4977376;28;20451;-72
2022/09/22 14:02:32;;;;;;;1.63;1.47;;;21.80;99.90;;;;;;4975959;28;21036;-72
2022/09/22 14:05:32;;;;;;;1.80;1.40;;;21.50;99.90;;;;;;4972827;28;20859;-71
2022/09/22 14:08:33;;;;;;;2.00;1.57;;;21.20;99.90;;;;;;4969586;28;20564;-71
2022/09/22 14:11:29;;;;;;;2.30;1.37;;;20.90;99.90;;;;;;4993163;28;20466;-73
2022/09/22 14:14:29;;;;;;;2.97;1.50;;;20.60;99.90;;;;;;4984533;28;20478;-73
2022/09/22 14:17:26;;;;;;;2.43;1.40;;;20.50;99.90;;;;;;4980176;28;20479;-73
2022/09/22 14:20:20;;;;;;;1.73;1.30;;;20.30;99.90;;;;;;4977780;28;20451;-73
2022/09/22 14:23:17;;;;;;;2.10;1.37;;;20.10;99.90;;;;;;4976507;28;20475;-73
2022/09/22 14:26:31;;;;;;;2.50;1.60;;;19.90;99.90;;;;;;4982648;28;20496;-73
2022/09/22 14:29:31;;;;;;;2.13;1.53;;;19.70;99.90;;;;;;4965231;28;20449;-73
2022/09/22 14:32:25;;;;;;;2.80;1.40;;;19.60;99.90;;;;;;4964154;28;20478;-73
2022/09/22 14:35:24;;;;;;;4.40;1.60;;;19.50;99.90;;;;;;4966831;28;20694;-73
2022/09/22 14:38:29;;;;;;;2.30;1.40;;;19.30;99.90;;;;;;4969268;28;20938;-73
2022/09/22 14:41:22;;;;;;;4.27;1.40;;;19.20;99.90;;;;;;4973577;28;20455;-73
2022/09/22 14:44:36;;;;;;;3.67;1.60;;;19.10;99.90;;;;;;4986692;28;21028;-74
2022/09/22 14:47:39;;;;;;;1.50;1.00;;;19.10;99.90;;;;;;4975025;28;20493;-73
2022/09/22 14:50:44;;;;;;;2.80;1.43;;;19.00;99.90;;;;;;4984800;28;21030;-73
2022/09/22 14:53:44;;;;;;;1.83;1.40;;;18.90;99.90;;;;;;4976499;28;20469;-73
2022/09/22 14:56:52;;;;;;;2.97;1.40;;;18.80;99.90;;;;;;4976204;28;22163;-74
2022/09/22 15:02:59;;;;;;;3.60;1.50;;;18.70;99.90;;;;;;4985644;28;20917;-73
2022/09/22 15:05:50;;;;;;;2.70;1.70;;;18.60;99.90;;;;;;4980882;28;20478;-73
2022/09/22 15:08:52;;;;;;;2.03;1.33;;;18.50;99.90;;;;;;4977581;28;20457;-74
2022/09/22 15:11:48;;;;;;;3.23;1.53;;;18.40;99.90;;;;;;4979810;28;20461;-72
2022/09/22 15:14:43;;;;;;;1.97;1.30;;;18.40;99.90;;;;;;4981500;28;20575;-72
2022/09/22 15:20:51;;;;;;;2.40;1.30;;;18.20;99.90;;;;;;4981019;28;20837;-72
2022/09/22 15:23:47;;;;;;;1.53;1.43;;;18.20;99.90;;;;;;4987056;28;20445;-72
2022/09/22 15:26:37;;;;;;;3.80;1.27;;;18.10;99.90;;;;;;4981670;28;20854;-71
2022/09/22 15:29:31;;;;;;;1.90;1.50;;;18.00;99.90;;;;;;4979504;28;20821;-73
2022/09/22 15:32:19;;;;;;;1.90;1.20;;;17.90;99.90;;;;;;4984539;28;20445;-74
2022/09/22 15:35:11;;;;;;;2.43;1.43;;;17.90;99.90;;;;;;4981014;28;20492;-73
2022/09/22 15:38:18;;;;;;;1.80;1.30;;;17.90;99.90;;;;;;4972093;28;20464;-73
2022/09/22 15:41:13;;;;;;;2.50;1.67;;;17.80;99.90;;;;;;4983259;28;20461;-70
2022/09/22 15:44:01;;;;;;;3.80;1.60;;;17.80;99.90;;;;;;4983874;28;21012;-73
2022/09/22 15:46:54;;;;;;;2.07;1.53;;;17.80;99.90;;;;;;4982815;28;20494;-71
2022/09/22 15:49:43;;;;;;;2.60;1.70;;;17.70;99.90;;;;;;4987238;28;20556;-73
2022/09/22 15:52:32;;;;;;;1.67;1.50;;;17.70;99.90;;;;;;4973119;28;21218;-71
2022/09/22 15:55:24;;;;;;;2.83;1.80;;;17.60;99.90;;;;;;4980729;28;20505;-72
2022/09/22 15:58:15;;;;;;;1.80;1.30;;;17.60;99.90;;;;;;4978829;28;20458;-71
2022/09/22 16:01:06;;;;;;;3.10;1.60;;;17.50;99.90;;;;;;4976217;28;20460;-71
2022/09/22 16:03:56;;;;;;;2.00;1.60;;;17.50;99.90;;;;;;4966175;28;23917;-72
2022/09/22 16:06:53;;;;;;;2.70;1.70;;;17.50;99.90;;;;;;4969637;28;20478;-72
2022/09/22 16:09:50;;;;;;;1.90;1.60;;;17.40;99.90;;;;;;4975702;28;20462;-71
2022/09/22 16:12:45;;;;;;;3.83;1.90;;;17.40;99.90;;;;;;4978818;28;20455;-71
2022/09/22 16:15:39;;;;;;;8.90;2.93;;;17.30;99.90;;;;;;4976739;28;20880;-72
2022/09/22 16:18:27;;;;;;;4.07;2.03;;;17.30;99.90;;;;;;4975270;28;21144;-72
2022/09/22 16:21:25;;;;;;;2.10;1.47;;;17.30;99.90;;;;;;4974576;28;20460;-72
2022/09/22 16:24:16;;;;;;;4.30;1.67;;;17.20;99.90;;;;;;4971160;28;21218;-72
2022/09/22 16:27:16;;;;;;;;;;;;;;;;;;;;;
2022/09/22 16:30:09;;;;;;;1.87;1.77;;;17.20;99.90;;;;;;4977991;28;20527;-71
2022/09/22 16:33:00;;;;;;;2.73;1.80;;;17.10;99.90;;;;;;4978943;28;20456;-72
2022/09/22 16:35:53;;;;;;;2.80;2.30;;;17.10;99.90;;;;;;4971416;28;22872;-72
2022/09/22 16:38:42;;;;;;;1.87;1.77;;;17.00;99.90;;;;;;4984242;28;20457;-73
2022/09/22 16:41:37;;;;;;;3.90;2.20;;;16.90;99.90;;;;;;4976431;28;20479;-72
2022/09/22 16:44:25;;;;;;;1.97;1.87;;;16.90;99.90;;;;;;4975232;28;20446;-71